sensor_id;sensor_type;location;lat;lon;timestamp;pressure;altitude;pressure_sealevel;temperature;humidity
73063;BME280;61230;46.328;19.972;2024-03-23T00:54:43;100334.44;;;7.43;100.00
73063;BME280;61230;46.328;19.972;2024-03-23T00:57:10;100327.66;;;7.40;100.00
73063;BME280;61230;46.328;19.972;2024-03-23T00:59:36;100339.31;;;7.36;100.00
73063;BME280;61230;46.328;19.972;2024-03-23T01:02:03;100291.81;;;7.09;100.00
73063;BME280;61230;46.328;19.972;2024-03-23T01:04:30;100332.53;;;7.34;100.00
73063;BME280;61230;46.328;19.972;2024-03-23T01:06:56;100333.25;;;7.36;100.00
73063;BME280;61230;46.328;19.972;2024-03-23T01:09:23;100324.94;;;7.31;100.00
73063;BME280;61230;46.328;19.972;2024-03-23T01:11:49;100325.53;;;7.34;100.00
73063;BME280;61230;46.328;19.972;2024-03-23T01:14:16;100331.69;;;7.33;100.00
73063;BME280;61230;46.328;19.972;2024-03-23T01:16:43;100322.31;;;7.31;100.00
73063;BME280;61230;46.328;19.972;2024-03-23T01:19:09;100316.25;;;7.30;100.00
73063;BME280;61230;46.328;19.972;2024-03-23T01:21:36;100271.22;;;7.05;100.00
73063;BME280;61230;46.328;19.972;2024-03-23T01:24:03;100315.66;;;7.27;100.00
73063;BME280;61230;46.328;19.972;2024-03-23T01:26:29;100317.47;;;7.26;100.00
73063;BME280;61230;46.328;19.972;2024-03-23T01:28:56;100315.16;;;7.33;100.00
73063;BME280;61230;46.328;19.972;2024-03-23T01:31:22;100266.69;;;7.07;100.00
73063;BME280;61230;46.328;19.972;2024-03-23T01:33:49;100307.78;;;7.38;100.00
73063;BME280;61230;46.328;19.972;2024-03-23T01:36:15;100305.53;;;7.33;100.00
73063;BME280;61230;46.328;19.972;2024-03-23T01:38:42;100308.59;;;7.38;100.00
73063;BME280;61230;46.328;19.972;2024-03-23T01:41:08;100299.81;;;7.39;100.00
73063;BME280;61230;46.328;19.972;2024-03-23T01:43:35;100298.13;;;7.38;100.00
73063;BME280;61230;46.328;19.972;2024-03-23T01:46:02;100255.28;;;7.08;100.00
73063;BME280;61230;46.328;19.972;2024-03-23T01:48:29;100304.59;;;7.34;100.00
73063;BME280;61230;46.328;19.972;2024-03-23T01:50:55;100291.50;;;7.34;100.00
73063;BME280;61230;46.328;19.972;2024-03-23T01:53:22;100293.16;;;7.35;100.00
73063;BME280;61230;46.328;19.972;2024-03-23T01:55:50;100299.34;;;7.34;100.00
73063;BME280;61230;46.328;19.972;2024-03-23T01:58:17;100287.34;;;7.32;100.00
73063;BME280;61230;46.328;19.972;2024-03-23T02:00:44;100290.66;;;7.34;100.00
73063;BME280;61230;46.328;19.972;2024-03-23T02:03:27;100294.81;;;7.36;100.00
73063;BME280;61230;46.328;19.972;2024-03-23T02:05:54;100277.13;;;7.29;100.00
73063;BME280;61230;46.328;19.972;2024-03-23T02:08:22;100295.66;;;7.37;100.00
73063;BME280;61230;46.328;19.972;2024-03-23T02:10:50;100293.03;;;7.37;100.00
73063;BME280;61230;46.328;19.972;2024-03-23T02:13:18;100258.84;;;7.18;100.00
73063;BME280;61230;46.328;19.972;2024-03-23T02:15:45;100286.28;;;7.34;100.00
73063;BME280;61230;46.328;19.972;2024-03-23T02:18:12;100292.34;;;7.35;100.00
73063;BME280;61230;46.328;19.972;2024-03-23T02:20:38;100284.84;;;7.30;100.00
73063;BME280;61230;46.328;19.972;2024-03-23T02:23:05;100289.81;;;7.33;100.00
73063;BME280;61230;46.328;19.972;2024-03-23T02:25:34;100284.84;;;7.30;100.00
73063;BME280;61230;46.328;19.972;2024-03-23T02:28:01;100263.84;;;7.21;100.00
73063;BME280;61230;46.328;19.972;2024-03-23T02:30:28;100233.16;;;7.12;100.00
73063;BME280;61230;46.328;19.972;2024-03-23T02:32:54;100285.19;;;7.37;100.00
73063;BME280;61230;46.328;19.972;2024-03-23T02:35:21;100240.19;;;7.11;100.00
73063;BME280;61230;46.328;19.972;2024-03-23T02:37:47;100281.72;;;7.36;100.00
73063;BME280;61230;46.328;19.972;2024-03-23T02:40:17;100273.03;;;7.36;100.00
73063;BME280;61230;46.328;19.972;2024-03-23T02:42:44;100224.03;;;7.06;100.00
73063;BME280;61230;46.328;19.972;2024-03-23T02:45:11;100265.81;;;7.28;100.00
73063;BME280;61230;46.328;19.972;2024-03-23T02:47:37;100263.69;;;7.22;100.00
73063;BME280;61230;46.328;19.972;2024-03-23T02:50:04;100254.41;;;7.18;100.00
73063;BME280;61230;46.328;19.972;2024-03-23T02:52:31;100265.84;;;7.17;100.00
73063;BME280;61230;46.328;19.972;2024-03-23T02:54:58;100252.38;;;7.22;100.00
73063;BME280;61230;46.328;19.972;2024-03-23T02:57:24;100202.87;;;6.98;100.00
73063;BME280;61230;46.328;19.972;2024-03-23T02:59:51;100253.59;;;7.18;100.00
73063;BME280;61230;46.328;19.972;2024-03-23T03:02:17;100251.69;;;7.20;100.00
73063;BME280;61230;46.328;19.972;2024-03-23T03:04:44;100253.22;;;7.22;100.00
73063;BME280;61230;46.328;19.972;2024-03-23T03:07:11;100254.41;;;7.18;100.00
73063;BME280;61230;46.328;19.972;2024-03-23T03:09:37;100243.94;;;7.18;100.00
73063;BME280;61230;46.328;19.972;2024-03-23T03:12:06;100243.16;;;7.18;100.00
73063;BME280;61230;46.328;19.972;2024-03-23T03:14:33;100238.72;;;7.18;100.00
73063;BME280;61230;46.328;19.972;2024-03-23T03:17:00;100242.91;;;7.21;100.00
73063;BME280;61230;46.328;19.972;2024-03-23T03:19:27;100242.56;;;7.14;100.00
73063;BME280;61230;46.328;19.972;2024-03-23T03:21:54;100236.25;;;7.17;100.00
73063;BME280;61230;46.328;19.972;2024-03-23T03:24:21;100240.63;;;7.16;100.00
73063;BME280;61230;46.328;19.972;2024-03-23T03:26:47;100229.34;;;7.16;100.00
73063;BME280;61230;46.328;19.972;2024-03-23T03:29:16;100235.88;;;7.10;100.00
73063;BME280;61230;46.328;19.972;2024-03-23T03:31:43;100231.25;;;7.14;100.00
73063;BME280;61230;46.328;19.972;2024-03-23T03:34:10;100225.66;;;7.07;100.00
73063;BME280;61230;46.328;19.972;2024-03-23T03:36:37;100228.28;;;7.07;100.00
73063;BME280;61230;46.328;19.972;2024-03-23T03:39:03;100224.59;;;7.10;100.00
73063;BME280;61230;46.328;19.972;2024-03-23T03:41:31;100222.09;;;7.08;100.00
73063;BME280;61230;46.328;19.972;2024-03-23T03:43:58;100226.16;;;7.01;100.00
73063;BME280;61230;46.328;19.972;2024-03-23T03:46:28;100178.34;;;6.67;100.00
73063;BME280;61230;46.328;19.972;2024-03-23T03:48:55;100220.59;;;6.94;100.00
73063;BME280;61230;46.328;19.972;2024-03-23T03:51:21;100216.78;;;6.99;100.00
73063;BME280;61230;46.328;19.972;2024-03-23T03:53:48;100214.41;;;6.95;100.00
73063;BME280;61230;46.328;19.972;2024-03-23T03:56:14;100169.31;;;6.71;100.00
73063;BME280;61230;46.328;19.972;2024-03-23T03:58:41;100158.72;;;6.73;100.00
73063;BME280;61230;46.328;19.972;2024-03-23T04:01:07;100128.00;;;6.43;100.00
73063;BME280;61230;46.328;19.972;2024-03-23T04:03:34;100205.75;;;6.95;100.00
73063;BME280;61230;46.328;19.972;2024-03-23T04:06:01;100199.44;;;6.98;100.00
73063;BME280;61230;46.328;19.972;2024-03-23T04:08:27;100199.19;;;7.01;100.00
73063;BME280;61230;46.328;19.972;2024-03-23T04:10:54;100203.59;;;7.00;100.00
73063;BME280;61230;46.328;19.972;2024-03-23T04:13:20;100199.69;;;6.94;100.00
73063;BME280;61230;46.328;19.972;2024-03-23T04:15:47;100209.06;;;6.97;100.00
73063;BME280;61230;46.328;19.972;2024-03-23T04:18:13;100202.75;;;7.00;100.00
73063;BME280;61230;46.328;19.972;2024-03-23T04:20:40;100205.00;;;7.04;100.00
73063;BME280;61230;46.328;19.972;2024-03-23T04:23:07;100213.66;;;7.05;100.00
73063;BME280;61230;46.328;19.972;2024-03-23T04:25:33;100204.28;;;7.02;100.00
73063;BME280;61230;46.328;19.972;2024-03-23T04:28:00;100208.94;;;6.99;100.00
73063;BME280;61230;46.328;19.972;2024-03-23T04:30:26;100204.53;;;6.99;100.00
73063;BME280;61230;46.328;19.972;2024-03-23T04:32:55;100214.16;;;6.99;100.00
73063;BME280;61230;46.328;19.972;2024-03-23T04:35:23;100204.06;;;6.94;100.00
73063;BME280;61230;46.328;19.972;2024-03-23T04:37:57;100188.16;;;6.86;100.00
73063;BME280;61230;46.328;19.972;2024-03-23T04:40:26;100140.84;;;6.46;100.00
73063;BME280;61230;46.328;19.972;2024-03-23T04:42:52;100213.69;;;6.93;100.00
73063;BME280;61230;46.328;19.972;2024-03-23T04:45:18;100202.87;;;6.87;100.00
73063;BME280;61230;46.328;19.972;2024-03-23T04:47:45;100203.47;;;6.90;100.00
73063;BME280;61230;46.328;19.972;2024-03-23T04:50:13;100202.66;;;6.90;100.00
73063;BME280;61230;46.328;19.972;2024-03-23T04:52:39;100199.22;;;6.89;100.00
73063;BME280;61230;46.328;19.972;2024-03-23T04:55:07;100154.00;;;6.67;100.00
73063;BME280;61230;46.328;19.972;2024-03-23T04:57:34;100191.00;;;6.94;100.00
73063;BME280;61230;46.328;19.972;2024-03-23T05:00:00;100196.00;;;6.97;100.00
73063;BME280;61230;46.328;19.972;2024-03-23T05:02:27;100201.44;;;7.05;100.00
73063;BME280;61230;46.328;19.972;2024-03-23T05:04:54;100195.94;;;7.08;100.00
73063;BME280;61230;46.328;19.972;2024-03-23T05:07:20;100196.28;;;7.15;100.00
73063;BME280;61230;46.328;19.972;2024-03-23T05:09:47;100197.69;;;7.19;100.00
73063;BME280;61230;46.328;19.972;2024-03-23T05:12:15;100152.91;;;7.01;100.00
73063;BME280;61230;46.328;19.972;2024-03-23T05:14:41;100195.63;;;7.33;100.00
73063;BME280;61230;46.328;19.972;2024-03-23T05:17:08;100142.16;;;7.15;100.00
73063;BME280;61230;46.328;19.972;2024-03-23T05:19:34;100192.69;;;7.47;100.00
73063;BME280;61230;46.328;19.972;2024-03-23T05:22:01;100190.16;;;7.57;100.00
73063;BME280;61230;46.328;19.972;2024-03-23T05:24:28;100192.13;;;7.65;100.00
73063;BME280;61230;46.328;19.972;2024-03-23T05:26:55;100186.25;;;7.72;100.00
73063;BME280;61230;46.328;19.972;2024-03-23T05:29:22;100184.53;;;7.82;100.00
73063;BME280;61230;46.328;19.972;2024-03-23T05:31:49;100193.66;;;7.88;100.00
73063;BME280;61230;46.328;19.972;2024-03-23T05:34:16;100178.63;;;7.90;100.00
73063;BME280;61230;46.328;19.972;2024-03-23T05:36:42;100196.78;;;8.02;100.00
73063;BME280;61230;46.328;19.972;2024-03-23T05:39:09;100169.06;;;8.00;100.00
73063;BME280;61230;46.328;19.972;2024-03-23T05:41:36;100189.78;;;8.13;100.00
73063;BME280;61230;46.328;19.972;2024-03-23T05:44:02;100191.78;;;8.20;100.00
73063;BME280;61230;46.328;19.972;2024-03-23T05:46:30;100185.28;;;8.24;100.00
73063;BME280;61230;46.328;19.972;2024-03-23T05:49:01;100189.34;;;8.28;100.00
73063;BME280;61230;46.328;19.972;2024-03-23T05:51:28;100188.81;;;8.34;100.00
73063;BME280;61230;46.328;19.972;2024-03-23T05:53:55;100191.03;;;8.39;100.00
73063;BME280;61230;46.328;19.972;2024-03-23T05:56:21;100189.69;;;8.44;100.00
73063;BME280;61230;46.328;19.972;2024-03-23T05:58:48;100191.50;;;8.53;100.00
73063;BME280;61230;46.328;19.972;2024-03-23T06:01:15;100183.53;;;8.64;100.00
73063;BME280;61230;46.328;19.972;2024-03-23T06:03:42;100188.25;;;8.71;100.00
73063;BME280;61230;46.328;19.972;2024-03-23T06:06:10;100182.47;;;8.77;100.00
73063;BME280;61230;46.328;19.972;2024-03-23T06:08:39;100186.19;;;8.84;100.00
73063;BME280;61230;46.328;19.972;2024-03-23T06:11:06;100186.91;;;8.95;100.00
73063;BME280;61230;46.328;19.972;2024-03-23T06:13:33;100183.59;;;9.03;100.00
73063;BME280;61230;46.328;19.972;2024-03-23T06:16:01;100187.47;;;9.08;100.00
73063;BME280;61230;46.328;19.972;2024-03-23T06:18:27;100189.69;;;9.22;100.00
73063;BME280;61230;46.328;19.972;2024-03-23T06:20:54;100149.66;;;9.11;100.00
73063;BME280;61230;46.328;19.972;2024-03-23T06:23:20;100189.28;;;9.46;100.00
73063;BME280;61230;46.328;19.972;2024-03-23T06:25:47;100188.28;;;9.57;100.00
73063;BME280;61230;46.328;19.972;2024-03-23T06:28:14;100182.09;;;9.67;100.00
73063;BME280;61230;46.328;19.972;2024-03-23T06:30:41;100187.19;;;9.78;100.00
73063;BME280;61230;46.328;19.972;2024-03-23T06:33:08;100187.13;;;9.88;100.00
73063;BME280;61230;46.328;19.972;2024-03-23T06:35:35;100178.97;;;10.01;100.00
73063;BME280;61230;46.328;19.972;2024-03-23T06:38:01;100179.06;;;10.09;100.00
73063;BME280;61230;46.328;19.972;2024-03-23T06:40:28;100131.25;;;9.96;100.00
73063;BME280;61230;46.328;19.972;2024-03-23T06:42:54;100175.81;;;10.34;100.00
73063;BME280;61230;46.328;19.972;2024-03-23T06:45:21;100168.44;;;10.47;100.00
73063;BME280;61230;46.328;19.972;2024-03-23T06:47:49;100170.16;;;10.56;100.00
73063;BME280;61230;46.328;19.972;2024-03-23T06:50:17;100174.25;;;10.68;100.00
73063;BME280;61230;46.328;19.972;2024-03-23T06:52:43;100180.16;;;10.80;100.00
73063;BME280;61230;46.328;19.972;2024-03-23T06:55:10;100173.53;;;10.93;100.00
73063;BME280;61230;46.328;19.972;2024-03-23T06:57:37;100173.03;;;11.08;100.00
73063;BME280;61230;46.328;19.972;2024-03-23T07:00:04;100182.38;;;11.20;100.00
73063;BME280;61230;46.328;19.972;2024-03-23T07:02:31;100172.06;;;11.26;100.00
73063;BME280;61230;46.328;19.972;2024-03-23T07:04:58;100172.66;;;11.38;100.00
73063;BME280;61230;46.328;19.972;2024-03-23T07:07:24;100129.41;;;11.23;100.00
73063;BME280;61230;46.328;19.972;2024-03-23T07:09:51;100173.47;;;11.56;100.00
73063;BME280;61230;46.328;19.972;2024-03-23T07:12:19;100167.28;;;11.65;100.00
73063;BME280;61230;46.328;19.972;2024-03-23T07:14:45;100165.09;;;11.78;100.00
73063;BME280;61230;46.328;19.972;2024-03-23T07:17:12;100166.50;;;11.90;100.00
73063;BME280;61230;46.328;19.972;2024-03-23T07:19:39;100159.47;;;11.99;100.00
73063;BME280;61230;46.328;19.972;2024-03-23T07:22:05;100166.97;;;12.12;100.00
73063;BME280;61230;46.328;19.972;2024-03-23T07:24:32;100162.06;;;12.25;100.00
73063;BME280;61230;46.328;19.972;2024-03-23T07:26:59;100160.97;;;12.35;100.00
73063;BME280;61230;46.328;19.972;2024-03-23T07:29:25;100166.78;;;12.47;99.30
73063;BME280;61230;46.328;19.972;2024-03-23T07:31:52;100160.91;;;12.61;98.85
73063;BME280;61230;46.328;19.972;2024-03-23T07:34:18;100165.22;;;12.70;97.40
73063;BME280;61230;46.328;19.972;2024-03-23T07:36:45;100161.31;;;12.90;98.16
73063;BME280;61230;46.328;19.972;2024-03-23T07:39:12;100163.47;;;13.03;96.68
73063;BME280;61230;46.328;19.972;2024-03-23T07:41:38;100165.19;;;13.20;97.18
73063;BME280;61230;46.328;19.972;2024-03-23T07:44:05;100165.22;;;13.36;95.19
73063;BME280;61230;46.328;19.972;2024-03-23T07:46:31;100160.75;;;13.45;94.69
73063;BME280;61230;46.328;19.972;2024-03-23T07:48:58;100159.56;;;13.63;94.80
73063;BME280;61230;46.328;19.972;2024-03-23T07:51:24;100159.53;;;13.79;94.12
73063;BME280;61230;46.328;19.972;2024-03-23T07:53:51;100138.56;;;13.86;92.99
73063;BME280;61230;46.328;19.972;2024-03-23T07:56:19;100147.09;;;14.12;93.57
73063;BME280;61230;46.328;19.972;2024-03-23T07:58:46;100137.62;;;14.26;91.11
73063;BME280;61230;46.328;19.972;2024-03-23T08:01:14;100145.16;;;14.45;92.09
73063;BME280;61230;46.328;19.972;2024-03-23T08:03:42;100131.87;;;14.61;91.58
73063;BME280;61230;46.328;19.972;2024-03-23T08:06:12;100132.25;;;14.81;90.84
73063;BME280;61230;46.328;19.972;2024-03-23T08:08:40;100126.38;;;14.93;89.80
73063;BME280;61230;46.328;19.972;2024-03-23T08:11:07;100122.81;;;15.09;87.73
73063;BME280;61230;46.328;19.972;2024-03-23T08:13:34;100121.75;;;15.33;88.96
73063;BME280;61230;46.328;19.972;2024-03-23T08:16:02;100113.22;;;15.45;85.90
73063;BME280;61230;46.328;19.972;2024-03-23T08:18:30;100111.34;;;15.54;79.41
73063;BME280;61230;46.328;19.972;2024-03-23T08:21:04;100112.69;;;15.50;75.32
73063;BME280;61230;46.328;19.972;2024-03-23T08:23:33;100112.38;;;15.68;76.05
73063;BME280;61230;46.328;19.972;2024-03-23T08:26:01;100108.56;;;15.85;76.37
73063;BME280;61230;46.328;19.972;2024-03-23T08:28:28;100109.03;;;16.03;75.59
73063;BME280;61230;46.328;19.972;2024-03-23T08:30:55;100103.00;;;16.09;75.11
73063;BME280;61230;46.328;19.972;2024-03-23T08:33:23;100097.22;;;16.20;73.81
73063;BME280;61230;46.328;19.972;2024-03-23T08:36:03;100100.66;;;16.21;73.02
73063;BME280;61230;46.328;19.972;2024-03-23T08:38:30;100098.81;;;16.36;73.08
73063;BME280;61230;46.328;19.972;2024-03-23T08:41:07;100098.09;;;16.42;72.64
73063;BME280;61230;46.328;19.972;2024-03-23T08:43:39;100090.12;;;16.56;73.65
73063;BME280;61230;46.328;19.972;2024-03-23T08:48:34;100088.63;;;16.69;70.84
73063;BME280;61230;46.328;19.972;2024-03-23T08:51:06;100085.16;;;16.68;70.20
73063;BME280;61230;46.328;19.972;2024-03-23T08:53:33;100085.53;;;16.86;68.85
73063;BME280;61230;46.328;19.972;2024-03-23T08:56:00;100073.69;;;16.89;66.88
73063;BME280;61230;46.328;19.972;2024-03-23T08:58:28;100040.59;;;16.70;65.32
73063;BME280;61230;46.328;19.972;2024-03-23T09:00:56;100039.12;;;16.89;64.92
73063;BME280;61230;46.328;19.972;2024-03-23T09:03:23;100062.31;;;17.16;64.48
73063;BME280;61230;46.328;19.972;2024-03-23T09:05:51;100054.91;;;17.39;64.45
73063;BME280;61230;46.328;19.972;2024-03-23T09:08:18;100058.19;;;17.41;63.25
73063;BME280;61230;46.328;19.972;2024-03-23T09:10:47;100056.22;;;17.50;62.42
73063;BME280;61230;46.328;19.972;2024-03-23T09:13:14;100005.31;;;17.25;61.97
73063;BME280;61230;46.328;19.972;2024-03-23T09:15:51;100036.63;;;17.57;62.68
73063;BME280;61230;46.328;19.972;2024-03-23T09:18:18;99989.62;;;17.64;63.33
73063;BME280;61230;46.328;19.972;2024-03-23T09:20:44;100023.37;;;17.98;62.24
73063;BME280;61230;46.328;19.972;2024-03-23T09:23:11;99991.50;;;17.70;59.89
73063;BME280;61230;46.328;19.972;2024-03-23T09:25:38;99987.06;;;17.84;60.82
73063;BME280;61230;46.328;19.972;2024-03-23T09:28:06;99979.31;;;17.96;59.93
73063;BME280;61230;46.328;19.972;2024-03-23T09:30:35;100009.31;;;18.17;59.85
73063;BME280;61230;46.328;19.972;2024-03-23T09:33:02;100005.81;;;18.10;59.66
73063;BME280;61230;46.328;19.972;2024-03-23T09:35:29;99997.50;;;18.33;59.73
73063;BME280;61230;46.328;19.972;2024-03-23T09:37:55;99991.13;;;18.41;58.80
73063;BME280;61230;46.328;19.972;2024-03-23T09:40:23;99997.75;;;18.51;57.81
73063;BME280;61230;46.328;19.972;2024-03-23T09:42:50;100007.56;;;18.51;57.57
73063;BME280;61230;46.328;19.972;2024-03-23T09:45:21;99992.22;;;18.59;57.57
73063;BME280;61230;46.328;19.972;2024-03-23T09:47:48;99991.63;;;18.70;57.08
73063;BME280;61230;46.328;19.972;2024-03-23T09:50:17;99982.41;;;18.86;56.66
73063;BME280;61230;46.328;19.972;2024-03-23T09:52:45;99975.47;;;18.98;56.03
73063;BME280;61230;46.328;19.972;2024-03-23T09:55:12;99946.13;;;18.98;55.56
73063;BME280;61230;46.328;19.972;2024-03-23T09:57:41;99968.03;;;19.13;55.50
73063;BME280;61230;46.328;19.972;2024-03-23T10:00:08;99959.22;;;19.19;54.69
73063;BME280;61230;46.328;19.972;2024-03-23T10:02:36;99964.53;;;19.39;54.46
73063;BME280;61230;46.328;19.972;2024-03-23T10:05:03;99970.63;;;19.66;54.69
73063;BME280;61230;46.328;19.972;2024-03-23T10:07:30;99921.84;;;19.39;53.57
73063;BME280;61230;46.328;19.972;2024-03-23T10:09:57;99952.53;;;19.74;54.33
73063;BME280;61230;46.328;19.972;2024-03-23T10:12:24;99949.97;;;19.99;54.17
73063;BME280;61230;46.328;19.972;2024-03-23T10:14:50;99939.25;;;20.05;52.30
73063;BME280;61230;46.328;19.972;2024-03-23T10:17:22;99939.09;;;19.94;52.09
73063;BME280;61230;46.328;19.972;2024-03-23T10:19:52;99933.50;;;20.08;51.77
73063;BME280;61230;46.328;19.972;2024-03-23T10:22:20;99934.06;;;20.17;52.29
73063;BME280;61230;46.328;19.972;2024-03-23T10:24:48;99930.47;;;20.36;53.18
73063;BME280;61230;46.328;19.972;2024-03-23T10:27:15;99922.59;;;20.41;51.73
73063;BME280;61230;46.328;19.972;2024-03-23T10:29:48;99920.19;;;20.33;52.13
73063;BME280;61230;46.328;19.972;2024-03-23T10:32:18;99917.69;;;20.38;51.36
73063;BME280;61230;46.328;19.972;2024-03-23T10:34:45;99909.91;;;20.61;50.51
73063;BME280;61230;46.328;19.972;2024-03-23T10:37:11;99909.16;;;20.54;50.36
73063;BME280;61230;46.328;19.972;2024-03-23T10:39:41;99905.16;;;20.63;48.75
73063;BME280;61230;46.328;19.972;2024-03-23T10:42:09;99891.91;;;20.75;48.67
73063;BME280;61230;46.328;19.972;2024-03-23T10:44:39;99893.94;;;20.80;49.24
73063;BME280;61230;46.328;19.972;2024-03-23T10:47:05;99884.56;;;20.71;49.74
73063;BME280;61230;46.328;19.972;2024-03-23T10:49:33;99877.84;;;20.37;47.66
73063;BME280;61230;46.328;19.972;2024-03-23T10:52:02;99882.22;;;20.25;47.68
73063;BME280;61230;46.328;19.972;2024-03-23T10:54:30;99871.94;;;20.53;47.03
73063;BME280;61230;46.328;19.972;2024-03-23T10:57:05;99870.50;;;20.75;47.39
73063;BME280;61230;46.328;19.972;2024-03-23T10:59:34;99860.19;;;20.79;46.92
73063;BME280;61230;46.328;19.972;2024-03-23T11:02:03;99846.47;;;20.93;46.55
73063;BME280;61230;46.328;19.972;2024-03-23T11:04:38;99816.28;;;20.68;45.99
73063;BME280;61230;46.328;19.972;2024-03-23T11:07:38;99845.59;;;20.99;45.81
73063;BME280;61230;46.328;19.972;2024-03-23T11:10:27;99825.75;;;21.07;46.01
73063;BME280;61230;46.328;19.972;2024-03-23T11:12:56;99819.31;;;21.33;46.49
73063;BME280;61230;46.328;19.972;2024-03-23T11:15:23;99820.72;;;21.35;44.78
73063;BME280;61230;46.328;19.972;2024-03-23T11:18:06;99809.06;;;21.11;42.28
73063;BME280;61230;46.328;19.972;2024-03-23T11:20:38;99777.59;;;21.07;43.47
73063;BME280;61230;46.328;19.972;2024-03-23T11:23:04;99801.19;;;21.46;42.73
73063;BME280;61230;46.328;19.972;2024-03-23T11:25:31;99789.34;;;21.42;43.52
73063;BME280;61230;46.328;19.972;2024-03-23T11:28:10;99786.13;;;21.63;42.85
73063;BME280;61230;46.328;19.972;2024-03-23T11:30:37;99746.53;;;21.54;40.39
73063;BME280;61230;46.328;19.972;2024-03-23T11:33:05;99776.75;;;21.43;41.15
73063;BME280;61230;46.328;19.972;2024-03-23T11:35:39;99778.69;;;21.54;40.89
73063;BME280;61230;46.328;19.972;2024-03-23T11:38:15;99743.63;;;21.55;40.23
73063;BME280;61230;46.328;19.972;2024-03-23T11:40:48;99743.13;;;21.88;40.69
73063;BME280;61230;46.328;19.972;2024-03-23T11:43:16;99748.19;;;21.96;38.46
73063;BME280;61230;46.328;19.972;2024-03-23T11:45:47;99756.22;;;22.19;38.60
73063;BME280;61230;46.328;19.972;2024-03-23T11:48:19;99742.37;;;21.69;40.63
73063;BME280;61230;46.328;19.972;2024-03-23T11:50:47;99749.50;;;21.75;40.69
73063;BME280;61230;46.328;19.972;2024-03-23T11:53:18;99738.16;;;21.92;38.93
73063;BME280;61230;46.328;19.972;2024-03-23T11:55:53;99733.19;;;22.42;38.79
73063;BME280;61230;46.328;19.972;2024-03-23T11:58:22;99726.28;;;22.34;37.52
73063;BME280;61230;46.328;19.972;2024-03-23T12:00:50;99686.53;;;21.85;38.04
73063;BME280;61230;46.328;19.972;2024-03-23T12:03:19;99709.47;;;22.73;37.11
73063;BME280;61230;46.328;19.972;2024-03-23T12:05:49;99697.66;;;22.86;36.74
73063;BME280;61230;46.328;19.972;2024-03-23T12:10:46;99689.66;;;23.59;36.73
73063;BME280;61230;46.328;19.972;2024-03-23T12:13:21;99681.09;;;23.45;37.31
73063;BME280;61230;46.328;19.972;2024-03-23T12:15:50;99690.41;;;23.55;36.76
73063;BME280;61230;46.328;19.972;2024-03-23T12:18:17;99683.25;;;23.60;36.91
73063;BME280;61230;46.328;19.972;2024-03-23T12:20:44;99668.44;;;23.91;36.71
73063;BME280;61230;46.328;19.972;2024-03-23T12:23:12;99663.84;;;24.08;35.96
73063;BME280;61230;46.328;19.972;2024-03-23T12:25:39;99662.22;;;23.90;34.71
73063;BME280;61230;46.328;19.972;2024-03-23T12:28:07;99659.47;;;23.85;34.03
73063;BME280;61230;46.328;19.972;2024-03-23T12:30:35;99655.59;;;24.31;33.81
73063;BME280;61230;46.328;19.972;2024-03-23T12:33:02;99659.97;;;23.49;34.97
73063;BME280;61230;46.328;19.972;2024-03-23T12:35:29;99615.91;;;23.05;34.56
73063;BME280;61230;46.328;19.972;2024-03-23T12:37:56;99645.69;;;22.75;35.79
73063;BME280;61230;46.328;19.972;2024-03-23T12:40:23;99642.59;;;22.44;36.43
73063;BME280;61230;46.328;19.972;2024-03-23T12:42:50;99638.25;;;22.66;36.79
73063;BME280;61230;46.328;19.972;2024-03-23T12:45:16;99630.91;;;22.61;36.30
73063;BME280;61230;46.328;19.972;2024-03-23T12:47:43;99634.63;;;22.72;36.73
73063;BME280;61230;46.328;19.972;2024-03-23T12:50:10;99632.41;;;22.57;36.83
73063;BME280;61230;46.328;19.972;2024-03-23T12:52:38;99601.00;;;22.29;36.46
73063;BME280;61230;46.328;19.972;2024-03-23T12:55:05;99622.50;;;22.58;36.18
73063;BME280;61230;46.328;19.972;2024-03-23T12:57:32;99622.00;;;23.29;35.14
73063;BME280;61230;46.328;19.972;2024-03-23T12:59:59;99615.66;;;23.85;35.24
73063;BME280;61230;46.328;19.972;2024-03-23T13:02:26;99615.81;;;23.78;34.78
73063;BME280;61230;46.328;19.972;2024-03-23T13:04:53;99613.53;;;24.03;34.13
73063;BME280;61230;46.328;19.972;2024-03-23T13:07:21;99611.56;;;24.59;33.50
73063;BME280;61230;46.328;19.972;2024-03-23T13:09:52;99613.66;;;24.79;33.58
73063;BME280;61230;46.328;19.972;2024-03-23T13:12:19;99579.78;;;23.58;33.62
73063;BME280;61230;46.328;19.972;2024-03-23T13:14:47;99606.06;;;23.56;34.18
73063;BME280;61230;46.328;19.972;2024-03-23T13:17:14;99605.56;;;23.59;33.86
73063;BME280;61230;46.328;19.972;2024-03-23T13:19:41;99601.25;;;22.96;34.65
73063;BME280;61230;46.328;19.972;2024-03-23T13:22:08;99599.19;;;23.15;34.33
73063;BME280;61230;46.328;19.972;2024-03-23T13:24:38;99581.22;;;23.82;34.19
73063;BME280;61230;46.328;19.972;2024-03-23T13:27:04;99574.81;;;24.43;33.37
73063;BME280;61230;46.328;19.972;2024-03-23T13:29:34;99582.09;;;23.87;34.14
73063;BME280;61230;46.328;19.972;2024-03-23T13:32:01;99584.00;;;23.70;33.86
73063;BME280;61230;46.328;19.972;2024-03-23T13:34:28;99573.16;;;23.82;34.34
73063;BME280;61230;46.328;19.972;2024-03-23T13:36:56;99563.75;;;23.13;34.90
73063;BME280;61230;46.328;19.972;2024-03-23T13:39:25;99567.44;;;22.95;35.86
73063;BME280;61230;46.328;19.972;2024-03-23T13:41:54;99555.53;;;22.74;35.62
73063;BME280;61230;46.328;19.972;2024-03-23T13:44:23;99555.84;;;22.50;35.81